sensor_id;sensor_type;location;lat;lon;timestamp;pressure;altitude;pressure_sealevel;temperature;humidity
31911;BME280;18457;52.432;16.914;2022-11-20T00:00:51;100052.41;;;0.71;84.54
31911;BME280;18457;52.432;16.914;2022-11-20T00:03:23;100058.78;;;0.50;85.98
31911;BME280;18457;52.432;16.914;2022-11-20T00:05:58;100056.42;;;0.63;85.87
31911;BME280;18457;52.432;16.914;2022-11-20T00:08:30;100064.85;;;0.53;86.43
31911;BME280;18457;52.432;16.914;2022-11-20T00:11:05;100069.98;;;0.35;87.82
31911;BME280;18457;52.432;16.914;2022-11-20T00:13:46;100072.62;;;0.47;87.72
31911;BME280;18457;52.432;16.914;2022-11-20T00:16:19;100071.38;;;0.49;87.55
31911;BME280;18457;52.432;16.914;2022-11-20T00:18:52;100066.81;;;0.53;87.30
31911;BME280;18457;52.432;16.914;2022-11-20T00:21:26;100069.02;;;0.61;86.92
31911;BME280;18457;52.432;16.914;2022-11-20T00:23:58;100072.31;;;0.52;87.03
31911;BME280;18457;52.432;16.914;2022-11-20T00:26:29;100073.18;;;0.52;87.67
31911;BME280;18457;52.432;16.914;2022-11-20T00:29:02;100071.72;;;0.46;87.93
31911;BME280;18457;52.432;16.914;2022-11-20T00:31:34;100074.41;;;0.50;88.13
31911;BME280;18457;52.432;16.914;2022-11-20T00:34:06;100073.27;;;0.43;88.20
31911;BME280;18457;52.432;16.914;2022-11-20T00:36:38;100074.10;;;0.37;88.77
31911;BME280;18457;52.432;16.914;2022-11-20T00:39:10;100072.05;;;0.45;88.32
31911;BME280;18457;52.432;16.914;2022-11-20T00:41:41;100068.37;;;0.49;87.78
31911;BME280;18457;52.432;16.914;2022-11-20T00:44:13;100071.94;;;0.34;88.27
31911;BME280;18457;52.432;16.914;2022-11-20T00:46:45;100067.81;;;0.32;88.20
31911;BME280;18457;52.432;16.914;2022-11-20T00:49:17;100072.42;;;0.45;87.52
31911;BME280;18457;52.432;16.914;2022-11-20T00:51:49;100072.57;;;0.43;86.94
31911;BME280;18457;52.432;16.914;2022-11-20T00:54:21;100071.02;;;0.32;87.88
31911;BME280;18457;52.432;16.914;2022-11-20T00:56:55;100077.30;;;0.38;87.56
31911;BME280;18457;52.432;16.914;2022-11-20T00:59:27;100078.92;;;0.40;87.82
31911;BME280;18457;52.432;16.914;2022-11-20T01:01:58;100083.02;;;0.25;88.22
31911;BME280;18457;52.432;16.914;2022-11-20T01:04:30;100078.31;;;0.33;88.72
31911;BME280;18457;52.432;16.914;2022-11-20T01:07:02;100080.61;;;0.33;88.62
31911;BME280;18457;52.432;16.914;2022-11-20T01:09:34;100077.13;;;0.37;88.32
31911;BME280;18457;52.432;16.914;2022-11-20T01:12:07;100076.02;;;0.48;87.85
31911;BME280;18457;52.432;16.914;2022-11-20T01:14:39;100069.64;;;0.52;87.50
31911;BME280;18457;52.432;16.914;2022-11-20T01:17:11;100071.77;;;0.52;87.26
31911;BME280;18457;52.432;16.914;2022-11-20T01:19:43;100073.92;;;0.55;87.43
31911;BME280;18457;52.432;16.914;2022-11-20T01:22:14;100069.44;;;0.51;87.70
31911;BME280;18457;52.432;16.914;2022-11-20T01:24:46;100070.98;;;0.44;88.57
31911;BME280;18457;52.432;16.914;2022-11-20T01:27:18;100074.30;;;0.40;88.34
31911;BME280;18457;52.432;16.914;2022-11-20T01:29:50;100077.02;;;0.44;88.48
31911;BME280;18457;52.432;16.914;2022-11-20T01:32:29;100074.20;;;0.31;89.14
31911;BME280;18457;52.432;16.914;2022-11-20T01:35:00;100078.09;;;0.46;88.71
31911;BME280;18457;52.432;16.914;2022-11-20T01:37:32;100074.40;;;0.48;88.50
31911;BME280;18457;52.432;16.914;2022-11-20T01:40:05;100071.52;;;0.44;88.72
31911;BME280;18457;52.432;16.914;2022-11-20T01:42:37;100070.60;;;0.42;88.69
31911;BME280;18457;52.432;16.914;2022-11-20T01:46:03;100074.67;;;0.40;89.15
31911;BME280;18457;52.432;16.914;2022-11-20T01:48:38;100077.80;;;0.50;88.96
31911;BME280;18457;52.432;16.914;2022-11-20T01:51:19;100078.51;;;0.35;89.17
31911;BME280;18457;52.432;16.914;2022-11-20T01:53:54;100076.38;;;0.34;89.84
31911;BME280;18457;52.432;16.914;2022-11-20T01:56:29;100074.17;;;0.44;89.34
31911;BME280;18457;52.432;16.914;2022-11-20T01:59:05;100072.10;;;0.18;90.18
31911;BME280;18457;52.432;16.914;2022-11-20T02:01:38;100074.17;;;0.29;90.50
31911;BME280;18457;52.432;16.914;2022-11-20T02:04:11;100076.56;;;0.21;91.03
31911;BME280;18457;52.432;16.914;2022-11-20T02:06:47;100071.41;;;0.34;90.65
31911;BME280;18457;52.432;16.914;2022-11-20T02:09:19;100071.63;;;0.38;90.38
31911;BME280;18457;52.432;16.914;2022-11-20T02:11:51;100065.98;;;0.27;90.48
31911;BME280;18457;52.432;16.914;2022-11-20T02:14:24;100066.46;;;0.37;90.52
31911;BME280;18457;52.432;16.914;2022-11-20T02:16:56;100059.84;;;0.33;90.43
31911;BME280;18457;52.432;16.914;2022-11-20T02:19:30;100058.30;;;0.39;90.64
31911;BME280;18457;52.432;16.914;2022-11-20T02:22:04;100059.98;;;0.45;90.31
31911;BME280;18457;52.432;16.914;2022-11-20T02:24:39;100061.59;;;0.45;90.12
31911;BME280;18457;52.432;16.914;2022-11-20T02:27:13;100064.00;;;0.40;90.42
31911;BME280;18457;52.432;16.914;2022-11-20T02:29:47;100067.20;;;0.39;90.61
31911;BME280;18457;52.432;16.914;2022-11-20T02:32:23;100062.70;;;0.34;90.69
31911;BME280;18457;52.432;16.914;2022-11-20T02:34:55;100063.44;;;0.22;91.63
31911;BME280;18457;52.432;16.914;2022-11-20T02:37:32;100059.25;;;0.28;91.69
31911;BME280;18457;52.432;16.914;2022-11-20T02:40:08;100059.30;;;0.32;91.78
31911;BME280;18457;52.432;16.914;2022-11-20T02:42:40;100058.96;;;0.19;91.91
31911;BME280;18457;52.432;16.914;2022-11-20T02:45:13;100056.42;;;0.30;92.08
31911;BME280;18457;52.432;16.914;2022-11-20T02:47:45;100052.60;;;0.21;91.89
31911;BME280;18457;52.432;16.914;2022-11-20T02:50:16;100052.47;;;0.25;92.52
31911;BME280;18457;52.432;16.914;2022-11-20T02:52:48;100052.55;;;0.32;91.82
31911;BME280;18457;52.432;16.914;2022-11-20T02:55:20;100052.71;;;0.30;91.89
31911;BME280;18457;52.432;16.914;2022-11-20T02:57:52;100048.70;;;0.37;91.54
31911;BME280;18457;52.432;16.914;2022-11-20T03:00:24;100052.09;;;0.38;91.35
31911;BME280;18457;52.432;16.914;2022-11-20T03:02:56;100048.98;;;0.32;91.29
31911;BME280;18457;52.432;16.914;2022-11-20T03:05:28;100046.00;;;0.34;91.55
31911;BME280;18457;52.432;16.914;2022-11-20T03:07:59;100047.02;;;0.29;91.53
31911;BME280;18457;52.432;16.914;2022-11-20T03:10:31;100039.48;;;0.39;91.32
31911;BME280;18457;52.432;16.914;2022-11-20T03:13:03;100037.48;;;0.35;91.41
31911;BME280;18457;52.432;16.914;2022-11-20T03:15:36;100039.80;;;0.36;91.31
31911;BME280;18457;52.432;16.914;2022-11-20T03:18:08;100033.14;;;0.44;90.94
31911;BME280;18457;52.432;16.914;2022-11-20T03:20:40;100033.52;;;0.46;90.59
31911;BME280;18457;52.432;16.914;2022-11-20T03:23:11;100037.17;;;0.39;91.20
31911;BME280;18457;52.432;16.914;2022-11-20T03:25:43;100035.25;;;0.42;91.01
31911;BME280;18457;52.432;16.914;2022-11-20T03:28:15;100036.80;;;0.38;91.22
31911;BME280;18457;52.432;16.914;2022-11-20T03:30:47;100041.29;;;0.26;91.81
31911;BME280;18457;52.432;16.914;2022-11-20T03:33:19;100039.08;;;0.35;91.40
31911;BME280;18457;52.432;16.914;2022-11-20T03:35:50;100044.27;;;0.38;91.05
31911;BME280;18457;52.432;16.914;2022-11-20T03:38:22;100044.06;;;0.36;91.16
31911;BME280;18457;52.432;16.914;2022-11-20T03:40:59;100040.16;;;0.36;91.32
31911;BME280;18457;52.432;16.914;2022-11-20T03:43:32;100042.82;;;0.35;91.46
31911;BME280;18457;52.432;16.914;2022-11-20T03:46:05;100041.56;;;0.35;91.65
31911;BME280;18457;52.432;16.914;2022-11-20T03:48:37;100044.61;;;0.38;91.37
31911;BME280;18457;52.432;16.914;2022-11-20T03:51:10;100045.39;;;0.44;91.21
31911;BME280;18457;52.432;16.914;2022-11-20T03:53:45;100046.15;;;0.47;91.04
31911;BME280;18457;52.432;16.914;2022-11-20T03:56:19;100048.31;;;0.51;91.00
31911;BME280;18457;52.432;16.914;2022-11-20T03:58:51;100041.25;;;0.54;90.41
31911;BME280;18457;52.432;16.914;2022-11-20T04:01:25;100044.86;;;0.45;91.00
31911;BME280;18457;52.432;16.914;2022-11-20T04:03:58;100039.43;;;0.51;91.14
31911;BME280;18457;52.432;16.914;2022-11-20T04:06:33;100038.04;;;0.55;90.85
31911;BME280;18457;52.432;16.914;2022-11-20T04:09:05;100046.38;;;0.53;90.83
31911;BME280;18457;52.432;16.914;2022-11-20T04:11:39;100044.11;;;0.40;91.82
31911;BME280;18457;52.432;16.914;2022-11-20T04:14:15;100045.82;;;0.50;91.42
31911;BME280;18457;52.432;16.914;2022-11-20T04:16:47;100053.43;;;0.32;92.27
31911;BME280;18457;52.432;16.914;2022-11-20T04:19:19;100054.42;;;0.41;92.18
31911;BME280;18457;52.432;16.914;2022-11-20T04:21:51;100051.27;;;0.29;92.27
31911;BME280;18457;52.432;16.914;2022-11-20T04:24:22;100053.43;;;0.32;92.74
31911;BME280;18457;52.432;16.914;2022-11-20T04:26:54;100056.23;;;0.29;92.81
31911;BME280;18457;52.432;16.914;2022-11-20T04:29:25;100054.67;;;0.32;92.91
31911;BME280;18457;52.432;16.914;2022-11-20T04:31:57;100052.15;;;0.44;92.09
31911;BME280;18457;52.432;16.914;2022-11-20T04:34:29;100052.40;;;0.35;92.21
31911;BME280;18457;52.432;16.914;2022-11-20T04:37:01;100043.19;;;0.37;92.38
31911;BME280;18457;52.432;16.914;2022-11-20T04:39:32;100036.93;;;0.50;91.61
31911;BME280;18457;52.432;16.914;2022-11-20T04:42:04;100038.91;;;0.53;91.31
31911;BME280;18457;52.432;16.914;2022-11-20T04:44:54;100038.41;;;0.56;91.02
31911;BME280;18457;52.432;16.914;2022-11-20T04:47:26;100033.48;;;0.59;90.80
31911;BME280;18457;52.432;16.914;2022-11-20T04:49:58;100034.77;;;0.65;90.54
31911;BME280;18457;52.432;16.914;2022-11-20T04:52:29;100033.91;;;0.69;90.42
31911;BME280;18457;52.432;16.914;2022-11-20T04:55:01;100028.88;;;0.62;90.48
31911;BME280;18457;52.432;16.914;2022-11-20T04:57:33;100029.39;;;0.60;90.59
31911;BME280;18457;52.432;16.914;2022-11-20T05:00:06;100024.29;;;0.67;90.57
31911;BME280;18457;52.432;16.914;2022-11-20T05:02:38;100025.42;;;0.73;90.03
31911;BME280;18457;52.432;16.914;2022-11-20T05:05:10;100025.08;;;0.74;90.02
31911;BME280;18457;52.432;16.914;2022-11-20T05:07:43;100018.79;;;0.67;90.21
31911;BME280;18457;52.432;16.914;2022-11-20T05:10:17;100018.14;;;0.54;90.99
31911;BME280;18457;52.432;16.914;2022-11-20T05:12:49;100019.38;;;0.53;91.25
31911;BME280;18457;52.432;16.914;2022-11-20T05:15:21;100020.55;;;0.47;91.76
31911;BME280;18457;52.432;16.914;2022-11-20T05:17:53;100021.63;;;0.46;92.12
31911;BME280;18457;52.432;16.914;2022-11-20T05:20:25;100021.60;;;0.44;92.39
31911;BME280;18457;52.432;16.914;2022-11-20T05:22:58;100022.38;;;0.51;92.20
31911;BME280;18457;52.432;16.914;2022-11-20T05:25:30;100026.52;;;0.59;91.26
31911;BME280;18457;52.432;16.914;2022-11-20T05:28:02;100028.80;;;0.55;91.66
31911;BME280;18457;52.432;16.914;2022-11-20T05:30:34;100026.56;;;0.61;91.25
31911;BME280;18457;52.432;16.914;2022-11-20T05:33:07;100029.29;;;0.67;91.06
31911;BME280;18457;52.432;16.914;2022-11-20T05:35:39;100023.98;;;0.71;90.52
31911;BME280;18457;52.432;16.914;2022-11-20T05:38:11;100022.05;;;0.73;89.93
31911;BME280;18457;52.432;16.914;2022-11-20T05:40:43;100022.92;;;0.71;89.62
31911;BME280;18457;52.432;16.914;2022-11-20T05:43:14;100025.41;;;0.71;89.78
31911;BME280;18457;52.432;16.914;2022-11-20T05:45:54;100022.70;;;0.67;89.94
31911;BME280;18457;52.432;16.914;2022-11-20T05:48:26;100026.45;;;0.69;90.03
31911;BME280;18457;52.432;16.914;2022-11-20T05:50:59;100020.64;;;0.74;89.53
31911;BME280;18457;52.432;16.914;2022-11-20T05:53:33;100018.69;;;0.74;89.34
31911;BME280;18457;52.432;16.914;2022-11-20T05:56:09;100016.20;;;0.74;89.14
31911;BME280;18457;52.432;16.914;2022-11-20T05:58:41;100012.64;;;0.74;89.20
31911;BME280;18457;52.432;16.914;2022-11-20T06:01:19;100018.74;;;0.79;89.27
31911;BME280;18457;52.432;16.914;2022-11-20T06:03:51;100018.71;;;0.77;89.38
31911;BME280;18457;52.432;16.914;2022-11-20T06:06:24;100017.81;;;0.76;89.13
31911;BME280;18457;52.432;16.914;2022-11-20T06:08:57;100019.77;;;0.76;89.36
31911;BME280;18457;52.432;16.914;2022-11-20T06:11:29;100023.87;;;0.78;89.47
31911;BME280;18457;52.432;16.914;2022-11-20T06:14:01;100029.05;;;0.81;88.84
31911;BME280;18457;52.432;16.914;2022-11-20T06:16:33;100025.98;;;0.75;88.47
31911;BME280;18457;52.432;16.914;2022-11-20T06:19:05;100024.39;;;0.76;88.58
31911;BME280;18457;52.432;16.914;2022-11-20T06:21:36;100027.73;;;0.72;88.53
31911;BME280;18457;52.432;16.914;2022-11-20T06:24:10;100026.33;;;0.76;88.57
31911;BME280;18457;52.432;16.914;2022-11-20T06:26:42;100030.39;;;0.72;88.82
31911;BME280;18457;52.432;16.914;2022-11-20T06:29:14;100031.22;;;0.65;89.43
31911;BME280;18457;52.432;16.914;2022-11-20T06:31:46;100030.91;;;0.70;89.49
31911;BME280;18457;52.432;16.914;2022-11-20T06:34:17;100032.19;;;0.74;89.72
31911;BME280;18457;52.432;16.914;2022-11-20T06:36:49;100037.90;;;0.75;89.33
31911;BME280;18457;52.432;16.914;2022-11-20T06:39:21;100026.66;;;0.72;89.20
31911;BME280;18457;52.432;16.914;2022-11-20T06:41:53;100028.64;;;0.75;89.01
31911;BME280;18457;52.432;16.914;2022-11-20T06:44:28;100025.08;;;0.73;88.64
31911;BME280;18457;52.432;16.914;2022-11-20T06:47:00;100019.08;;;0.78;88.02
31911;BME280;18457;52.432;16.914;2022-11-20T06:49:32;100014.95;;;0.74;87.66
31911;BME280;18457;52.432;16.914;2022-11-20T06:52:05;100014.27;;;0.77;87.43
31911;BME280;18457;52.432;16.914;2022-11-20T06:54:36;100021.20;;;0.76;87.61
31911;BME280;18457;52.432;16.914;2022-11-20T06:57:08;100019.59;;;0.77;87.72
31911;BME280;18457;52.432;16.914;2022-11-20T06:59:40;100019.01;;;0.72;87.39
31911;BME280;18457;52.432;16.914;2022-11-20T07:02:12;100019.23;;;0.75;87.49
31911;BME280;18457;52.432;16.914;2022-11-20T07:04:44;100022.28;;;0.79;86.70
31911;BME280;18457;52.432;16.914;2022-11-20T07:07:15;100017.48;;;0.81;86.33
31911;BME280;18457;52.432;16.914;2022-11-20T07:09:47;100016.44;;;0.82;86.08
31911;BME280;18457;52.432;16.914;2022-11-20T07:12:19;100017.72;;;0.86;85.84
31911;BME280;18457;52.432;16.914;2022-11-20T07:14:51;100011.52;;;0.88;85.22
31911;BME280;18457;52.432;16.914;2022-11-20T07:17:23;100012.78;;;0.92;84.64
31911;BME280;18457;52.432;16.914;2022-11-20T07:19:54;100012.95;;;0.90;84.44
31911;BME280;18457;52.432;16.914;2022-11-20T07:22:26;100013.48;;;0.69;85.02
31911;BME280;18457;52.432;16.914;2022-11-20T07:24:58;100018.54;;;0.78;83.66
31911;BME280;18457;52.432;16.914;2022-11-20T07:27:30;100014.80;;;0.75;82.99
31911;BME280;18457;52.432;16.914;2022-11-20T07:30:02;100014.98;;;0.78;81.99
31911;BME280;18457;52.432;16.914;2022-11-20T07:32:34;100016.56;;;0.74;81.69
31911;BME280;18457;52.432;16.914;2022-11-20T07:35:07;100010.09;;;0.67;81.52
31911;BME280;18457;52.432;16.914;2022-11-20T07:37:39;100014.95;;;0.54;81.91
31911;BME280;18457;52.432;16.914;2022-11-20T07:40:13;100015.43;;;0.50;82.02
31911;BME280;18457;52.432;16.914;2022-11-20T07:42:50;100009.34;;;0.44;82.31
31911;BME280;18457;52.432;16.914;2022-11-20T07:45:23;100007.70;;;0.59;82.09
31911;BME280;18457;52.432;16.914;2022-11-20T07:47:55;100005.14;;;0.71;81.54
31911;BME280;18457;52.432;16.914;2022-11-20T07:50:27;100002.73;;;0.81;80.74
31911;BME280;18457;52.432;16.914;2022-11-20T07:53:08;99997.98;;;0.84;80.00
31911;BME280;18457;52.432;16.914;2022-11-20T07:55:40;99997.90;;;0.76;79.88
31911;BME280;18457;52.432;16.914;2022-11-20T07:58:12;99991.30;;;0.73;80.29
31911;BME280;18457;52.432;16.914;2022-11-20T08:00:44;99992.14;;;0.70;80.40
31911;BME280;18457;52.432;16.914;2022-11-20T08:03:16;99988.48;;;0.74;80.63
31911;BME280;18457;52.432;16.914;2022-11-20T08:05:54;99991.71;;;0.60;80.74
31911;BME280;18457;52.432;16.914;2022-11-20T08:08:29;99989.61;;;0.62;80.82
31911;BME280;18457;52.432;16.914;2022-11-20T08:11:03;99991.58;;;0.63;80.88
31911;BME280;18457;52.432;16.914;2022-11-20T08:14:01;99988.55;;;0.82;79.68
31911;BME280;18457;52.432;16.914;2022-11-20T08:16:48;99989.11;;;0.87;79.44
31911;BME280;18457;52.432;16.914;2022-11-20T08:19:20;99986.67;;;0.95;79.24
31911;BME280;18457;52.432;16.914;2022-11-20T08:21:53;99980.50;;;1.00;78.99
31911;BME280;18457;52.432;16.914;2022-11-20T08:24:26;99983.40;;;0.85;78.81
31911;BME280;18457;52.432;16.914;2022-11-20T08:27:00;99975.80;;;0.70;79.24
31911;BME280;18457;52.432;16.914;2022-11-20T08:29:32;99973.58;;;0.79;79.42
31911;BME280;18457;52.432;16.914;2022-11-20T08:32:04;99972.80;;;0.72;79.44
31911;BME280;18457;52.432;16.914;2022-11-20T08:34:42;99973.21;;;0.57;79.98
31911;BME280;18457;52.432;16.914;2022-11-20T08:37:14;99975.67;;;0.55;80.32
31911;BME280;18457;52.432;16.914;2022-11-20T08:39:46;99975.02;;;0.60;80.29
31911;BME280;18457;52.432;16.914;2022-11-20T08:42:18;99970.14;;;0.72;80.04
31911;BME280;18457;52.432;16.914;2022-11-20T08:44:50;99969.95;;;0.70;79.67
31911;BME280;18457;52.432;16.914;2022-11-20T08:47:23;99964.81;;;0.73;79.61
31911;BME280;18457;52.432;16.914;2022-11-20T08:49:55;99963.48;;;0.83;79.23
31911;BME280;18457;52.432;16.914;2022-11-20T08:52:27;99963.63;;;0.80;79.51
31911;BME280;18457;52.432;16.914;2022-11-20T08:55:00;99963.85;;;0.86;79.18
31911;BME280;18457;52.432;16.914;2022-11-20T08:57:34;99961.52;;;0.83;79.93
31911;BME280;18457;52.432;16.914;2022-11-20T09:00:12;99968.29;;;1.10;78.85
31911;BME280;18457;52.432;16.914;2022-11-20T09:02:45;99963.71;;;0.91;78.55
31911;BME280;18457;52.432;16.914;2022-11-20T09:05:18;99961.67;;;1.03;78.89
31911;BME280;18457;52.432;16.914;2022-11-20T09:07:50;99956.96;;;1.18;78.31
31911;BME280;18457;52.432;16.914;2022-11-20T09:10:23;99958.52;;;1.13;78.27
31911;BME280;18457;52.432;16.914;2022-11-20T09:12:56;99961.30;;;1.27;77.01
31911;BME280;18457;52.432;16.914;2022-11-20T09:15:28;99959.09;;;1.18;77.07
31911;BME280;18457;52.432;16.914;2022-11-20T09:18:02;99956.46;;;1.22;77.48
31911;BME280;18457;52.432;16.914;2022-11-20T09:20:34;99955.61;;;1.31;76.93
31911;BME280;18457;52.432;16.914;2022-11-20T09:23:07;99958.35;;;1.41;76.60
31911;BME280;18457;52.432;16.914;2022-11-20T09:25:39;99954.39;;;1.35;76.46
31911;BME280;18457;52.432;16.914;2022-11-20T09:28:11;99957.52;;;1.51;76.63
31911;BME280;18457;52.432;16.914;2022-11-20T09:30:44;99954.09;;;1.47;75.84
31911;BME280;18457;52.432;16.914;2022-11-20T09:33:17;99956.58;;;1.44;75.87
31911;BME280;18457;52.432;16.914;2022-11-20T09:35:50;99955.14;;;1.41;74.78
31911;BME280;18457;52.432;16.914;2022-11-20T09:38:21;99952.19;;;1.23;75.60
31911;BME280;18457;52.432;16.914;2022-11-20T09:40:58;99953.23;;;1.53;74.33
31911;BME280;18457;52.432;16.914;2022-11-20T09:43:45;99953.14;;;1.67;73.54
31911;BME280;18457;52.432;16.914;2022-11-20T09:46:23;99945.90;;;1.85;73.12
31911;BME280;18457;52.432;16.914;2022-11-20T09:49:19;99946.81;;;1.92;73.07
31911;BME280;18457;52.432;16.914;2022-11-20T09:52:05;99951.08;;;1.88;72.35
31911;BME280;18457;52.432;16.914;2022-11-20T09:54:41;99949.22;;;1.68;73.16
31911;BME280;18457;52.432;16.914;2022-11-20T09:57:17;99945.69;;;1.79;72.28
31911;BME280;18457;52.432;16.914;2022-11-20T09:59:53;99937.89;;;1.86;72.19
31911;BME280;18457;52.432;16.914;2022-11-20T10:02:34;99943.23;;;1.87;72.31
31911;BME280;18457;52.432;16.914;2022-11-20T10:05:15;99941.79;;;1.82;71.51
31911;BME280;18457;52.432;16.914;2022-11-20T10:07:55;99938.95;;;1.86;72.15
31911;BME280;18457;52.432;16.914;2022-11-20T10:10:35;99937.57;;;1.99;71.69
31911;BME280;18457;52.432;16.914;2022-11-20T10:13:20;99935.96;;;1.96;71.79
31911;BME280;18457;52.432;16.914;2022-11-20T10:16:03;99935.56;;;1.87;73.54
31911;BME280;18457;52.432;16.914;2022-11-20T10:18:50;99933.48;;;2.00;73.18
31911;BME280;18457;52.432;16.914;2022-11-20T10:21:33;99932.95;;;2.06;72.19
31911;BME280;18457;52.432;16.914;2022-11-20T10:24:37;99929.73;;;2.05;72.21
31911;BME280;18457;52.432;16.914;2022-11-20T10:27:22;99929.06;;;2.14;71.86
31911;BME280;18457;52.432;16.914;2022-11-20T10:30:07;99925.33;;;2.21;71.67
31911;BME280;18457;52.432;16.914;2022-11-20T10:32:42;99921.41;;;2.19;71.50
31911;BME280;18457;52.432;16.914;2022-11-20T10:35:21;99922.11;;;2.24;72.20
31911;BME280;18457;52.432;16.914;2022-11-20T10:38:00;99920.34;;;2.34;71.53
31911;BME280;18457;52.432;16.914;2022-11-20T10:40:37;99913.73;;;2.19;71.44
31911;BME280;18457;52.432;16.914;2022-11-20T10:43:15;99916.17;;;1.91;72.48
31911;BME280;18457;52.432;16.914;2022-11-20T10:45:56;99919.27;;;2.23;72.32
31911;BME280;18457;52.432;16.914;2022-11-20T10:48:32;99920.16;;;2.20;72.52
31911;BME280;18457;52.432;16.914;2022-11-20T10:51:27;99917.14;;;2.26;72.54
31911;BME280;18457;52.432;16.914;2022-11-20T10:54:11;99915.71;;;2.18;71.62
31911;BME280;18457;52.432;16.914;2022-11-20T10:56:48;99911.96;;;2.21;70.71
31911;BME280;18457;52.432;16.914;2022-11-20T10:59:41;99905.57;;;2.39;70.38
31911;BME280;18457;52.432;16.914;2022-11-20T11:02:20;99907.35;;;2.45;69.57
31911;BME280;18457;52.432;16.914;2022-11-20T11:04:53;99906.81;;;2.35;70.15
31911;BME280;18457;52.432;16.914;2022-11-20T11:07:30;99908.77;;;2.38;70.74
31911;BME280;18457;52.432;16.914;2022-11-20T11:10:16;99914.13;;;2.46;70.22
31911;BME280;18457;52.432;16.914;2022-11-20T11:12:48;99913.77;;;2.44;70.62
31911;BME280;18457;52.432;16.914;2022-11-20T11:15:29;99911.98;;;2.45;71.34
31911;BME280;18457;52.432;16.914;2022-11-20T11:18:01;99915.02;;;2.51;70.90
31911;BME280;18457;52.432;16.914;2022-11-20T11:20:33;99917.69;;;2.37;70.95
31911;BME280;18457;52.432;16.914;2022-11-20T11:23:22;99918.36;;;2.10;71.49
31911;BME280;18457;52.432;16.914;2022-11-20T11:26:00;99909.81;;;2.17;71.68
31911;BME280;18457;52.432;16.914;2022-11-20T11:28:33;99911.44;;;2.32;71.05
31911;BME280;18457;52.432;16.914;2022-11-20T11:31:05;99913.40;;;2.40;70.32
31911;BME280;18457;52.432;16.914;2022-11-20T11:33:37;99906.09;;;2.34;70.94
31911;BME280;18457;52.432;16.914;2022-11-20T11:36:20;99905.75;;;2.39;71.28
31911;BME280;18457;52.432;16.914;2022-11-20T11:38:55;99904.31;;;2.32;71.36
31911;BME280;18457;52.432;16.914;2022-11-20T11:41:35;99900.04;;;2.30;72.24
31911;BME280;18457;52.432;16.914;2022-11-20T11:44:17;99899.70;;;2.41;72.23
31911;BME280;18457;52.432;16.914;2022-11-20T11:47:24;99898.98;;;2.40;72.01
31911;BME280;18457;52.432;16.914;2022-11-20T11:50:13;99896.30;;;2.36;71.61
31911;BME280;18457;52.432;16.914;2022-11-20T11:52:48;99891.31;;;2.36;71.12
31911;BME280;18457;52.432;16.914;2022-11-20T11:55:31;99883.61;;;2.06;71.70
31911;BME280;18457;52.432;16.914;2022-11-20T11:58:06;99873.45;;;2.05;72.30
31911;BME280;18457;52.432;16.914;2022-11-20T12:00:49;99875.59;;;1.97;72.88
31911;BME280;18457;52.432;16.914;2022-11-20T12:03:27;99882.73;;;2.12;71.98
31911;BME280;18457;52.432;16.914;2022-11-20T12:06:03;99879.48;;;1.94;71.66
31911;BME280;18457;52.432;16.914;2022-11-20T12:08:44;99881.96;;;1.83;72.30
31911;BME280;18457;52.432;16.914;2022-11-20T12:11:23;99881.30;;;2.04;72.14
31911;BME280;18457;52.432;16.914;2022-11-20T12:14:00;99876.61;;;1.79;72.25
31911;BME280;18457;52.432;16.914;2022-11-20T12:16:37;99876.61;;;1.77;72.30
31911;BME280;18457;52.432;16.914;2022-11-20T12:19:12;99871.09;;;1.75;72.80
31911;BME280;18457;52.432;16.914;2022-11-20T12:21:58;99872.20;;;1.95;71.65
31911;BME280;18457;52.432;16.914;2022-11-20T12:24:42;99868.83;;;1.96;71.76
31911;BME280;18457;52.432;16.914;2022-11-20T12:30:16;99861.35;;;2.10;71.74
31911;BME280;18457;52.432;16.914;2022-11-20T12:33:09;99859.05;;;2.19;71.71
31911;BME280;18457;52.432;16.914;2022-11-20T12:39:05;99848.52;;;2.07;72.22
31911;BME280;18457;52.432;16.914;2022-11-20T12:41:48;99847.29;;;2.07;72.18
31911;BME280;18457;52.432;16.914;2022-11-20T12:45:09;99843.35;;;2.04;71.75
31911;BME280;18457;52.432;16.914;2022-11-20T12:48:14;99842.12;;;2.13;71.56
31911;BME280;18457;52.432;16.914;2022-11-20T12:50:56;99841.41;;;2.05;71.51
31911;BME280;18457;52.432;16.914;2022-11-20T12:53:54;99838.02;;;2.00;71.79
31911;BME280;18457;52.432;16.914;2022-11-20T12:56:37;99830.19;;;2.03;72.07
31911;BME280;18457;52.432;16.914;2022-11-20T12:59:27;99833.02;;;2.12;72.57
31911;BME280;18457;52.432;16.914;2022-11-20T13:02:09;99832.68;;;2.26;71.84
31911;BME280;18457;52.432;16.914;2022-11-20T13:05:10;99835.52;;;2.24;70.89
31911;BME280;18457;52.432;16.914;2022-11-20T13:07:51;99829.47;;;2.21;70.79
31911;BME280;18457;52.432;16.914;2022-11-20T13:10:30;99828.23;;;2.16;71.57
31911;BME280;18457;52.432;16.914;2022-11-20T13:13:14;99831.61;;;2.12;71.15
31911;BME280;18457;52.432;16.914;2022-11-20T13:15:51;99826.97;;;2.15;70.63
31911;BME280;18457;52.432;16.914;2022-11-20T13:18:26;99823.23;;;2.20;70.17
31911;BME280;18457;52.432;16.914;2022-11-20T13:20:57;99818.06;;;2.15;70.31
31911;BME280;18457;52.432;16.914;2022-11-20T13:23:30;99823.24;;;2.09;70.82
31911;BME280;18457;52.432;16.914;2022-11-20T13:26:13;99823.23;;;2.02;70.56
31911;BME280;18457;52.432;16.914;2022-11-20T13:28:46;99821.63;;;2.10;70.48
31911;BME280;18457;52.432;16.914;2022-11-20T13:31:30;99820.57;;;2.13;69.76
31911;BME280;18457;52.432;16.914;2022-11-20T13:34:05;99815.23;;;1.97;70.46
31911;BME280;18457;52.432;16.914;2022-11-20T13:36:38;99812.72;;;2.08;70.13
31911;BME280;18457;52.432;16.914;2022-11-20T13:39:27;99811.48;;;2.05;70.87
31911;BME280;18457;52.432;16.914;2022-11-20T13:42:01;99812.89;;;2.14;71.05
31911;BME280;18457;52.432;16.914;2022-11-20T13:44:39;99812.73;;;2.11;71.07